Time;durP1;ratioP1;P1;durP2;ratioP2;P2;SDS_P1;SDS_P2;PMS_P1;PMS_P2;Temp;Humidity;BMP_temperature;BMP_pressure;BME280_temperature;BME280_humidity;BME280_pressure;Samples;Min_cycle;Max_cycle;Signal;HPM_P1;HPM_P2
2023/05/24 00:01:42;;;;;;;12.45;3.20;;;7.90;99.90;;;;;;5097054;28;20119;-71
2023/05/24 00:04:09;;;;;;;14.77;3.28;;;7.70;99.90;;;;;;5095731;28;20036;-72
2023/05/24 00:06:36;;;;;;;9.65;2.90;;;7.70;99.90;;;;;;5096516;28;20052;-70
2023/05/24 00:09:02;;;;;;;8.90;2.75;;;7.80;99.90;;;;;;5097026;28;20047;-70
2023/05/24 00:11:28;;;;;;;13.52;3.45;;;7.80;99.90;;;;;;5096721;28;20036;-71
2023/05/24 00:13:54;;;;;;;8.02;2.75;;;7.80;99.90;;;;;;5096704;28;20077;-70
2023/05/24 00:16:19;;;;;;;13.80;4.15;;;8.50;99.90;;;;;;5095983;28;20043;-71
2023/05/24 00:18:45;;;;;;;14.07;3.35;;;7.80;99.90;;;;;;5096607;28;20533;-71
2023/05/24 00:21:12;;;;;;;14.23;3.30;;;7.80;99.90;;;;;;5096510;28;20044;-71
2023/05/24 00:23:38;;;;;;;;;;;8.20;99.90;;;;;;5096965;28;20039;-71
2023/05/24 00:26:04;;;;;;;13.82;2.83;;;7.80;99.90;;;;;;5096448;28;19915;-70
2023/05/24 00:28:30;;;;;;;13.00;3.47;;;7.80;99.90;;;;;;5096417;28;20047;-71
2023/05/24 00:30:57;;;;;;;11.52;3.63;;;7.80;99.90;;;;;;5096439;28;20036;-71
2023/05/24 00:33:22;;;;;;;16.40;3.88;;;7.80;99.90;;;;;;5096361;28;20077;-71
2023/05/24 00:35:53;;;;;;;8.93;3.38;;;7.90;99.90;;;;;;5096263;28;20039;-71
2023/05/24 00:38:18;;;;;;;14.27;4.47;;;7.90;99.90;;;;;;5096756;28;20047;-71
2023/05/24 00:40:44;;;;;;;11.23;3.42;;;8.00;99.90;;;;;;5095685;28;20368;-70
2023/05/24 00:43:10;;;;;;;13.63;3.38;;;8.00;99.90;;;;;;5096074;28;20086;-70
2023/05/24 00:45:35;;;;;;;10.90;3.17;;;8.00;99.90;;;;;;5096214;28;20089;-71
2023/05/24 00:48:01;;;;;;;18.63;3.15;;;8.10;99.90;;;;;;5096162;28;20032;-72
2023/05/24 00:50:27;;;;;;;8.65;2.90;;;8.00;99.90;;;;;;5095781;28;20365;-70
2023/05/24 00:52:52;;;;;;;9.43;3.25;;;8.10;99.90;;;;;;5095999;28;20436;-70
2023/05/24 00:55:18;;;;;;;13.23;3.55;;;8.10;99.90;;;;;;5095952;28;20089;-71
2023/05/24 00:57:44;;;;;;;10.30;3.93;;;8.20;99.90;;;;;;5095920;28;20105;-71
2023/05/24 01:00:11;;;;;;;16.98;4.15;;;8.70;99.90;;;;;;5095546;28;20048;-71
2023/05/24 01:02:37;;;;;;;15.70;3.47;;;8.20;99.90;;;;;;5095860;28;20040;-71
2023/05/24 01:05:04;;;;;;;8.90;3.42;;;8.20;99.90;;;;;;5095681;28;20113;-71
2023/05/24 01:07:59;;;;;;;18.08;3.95;;;8.20;99.90;;;;;;5095423;28;20047;-71
2023/05/24 01:10:46;;;;;;;10.60;3.20;;;8.10;99.90;;;;;;5096010;28;20040;-70
2023/05/24 01:13:56;;;;;;;17.05;3.63;;;8.10;99.90;;;;;;5095717;28;20051;-70
2023/05/24 01:16:31;;;;;;;20.08;3.53;;;8.00;99.90;;;;;;5094286;28;20119;-70
2023/05/24 01:19:01;;;;;;;16.83;3.75;;;8.00;99.90;;;;;;5095656;28;20047;-71
2023/05/24 01:21:33;;;;;;;9.30;4.15;;;8.00;99.90;;;;;;5095307;28;20047;-70
2023/05/24 01:24:26;;;;;;;10.93;3.20;;;8.00;99.90;;;;;;5095366;28;20430;-70
2023/05/24 01:27:10;;;;;;;18.65;3.95;;;7.90;99.90;;;;;;5095675;28;20040;-71
2023/05/24 01:29:37;;;;;;;10.95;3.38;;;7.90;99.90;;;;;;5095256;28;20036;-70
2023/05/24 01:32:03;;;;;;;11.30;3.28;;;7.90;99.90;;;;;;5094251;28;20161;-71
2023/05/24 01:34:29;;;;;;;13.05;3.78;;;7.80;99.90;;;;;;5095039;28;20044;-70
2023/05/24 01:36:55;;;;;;;13.27;3.80;;;8.20;99.90;;;;;;5095186;28;20043;-71
2023/05/24 01:39:24;;;;;;;13.35;3.25;;;7.70;99.90;;;;;;5095086;28;20050;-71
2023/05/24 01:42:06;;;;;;;10.38;3.53;;;7.70;99.90;;;;;;5094809;28;20150;-70
2023/05/24 01:44:54;;;;;;;8.50;2.85;;;7.60;99.90;;;;;;5094923;28;20050;-71
2023/05/24 01:47:42;;;;;;;;;;;7.60;99.90;;;;;;5095293;28;20040;-70
2023/05/24 01:50:30;;;;;;;11.80;3.20;;;7.60;99.90;;;;;;5095047;28;20268;-71
2023/05/24 01:53:00;;;;;;;10.43;3.20;;;7.50;99.90;;;;;;5094748;28;20043;-71
2023/05/24 01:55:27;;;;;;;15.50;4.07;;;7.50;99.90;;;;;;5095282;28;20313;-70
2023/05/24 01:57:56;;;;;;;14.75;4.45;;;7.50;99.90;;;;;;5095125;28;20384;-70
2023/05/24 02:00:22;;;;;;;11.55;3.42;;;7.40;99.90;;;;;;5093623;28;20115;-71
2023/05/24 02:02:48;;;;;;;12.13;3.63;;;7.40;99.90;;;;;;5094605;28;20043;-70
2023/05/24 02:05:13;;;;;;;12.38;3.28;;;7.40;99.90;;;;;;5094588;28;20044;-71
2023/05/24 02:07:40;;;;;;;10.20;3.22;;;7.40;99.90;;;;;;5094644;28;20052;-71
2023/05/24 02:10:06;;;;;;;;;;;7.30;99.90;;;;;;5094910;28;20123;-72
2023/05/24 02:12:32;;;;;;;11.63;3.40;;;7.30;99.90;;;;;;5094411;28;20020;-72
2023/05/24 02:14:57;;;;;;;17.33;3.65;;;7.20;99.90;;;;;;5094364;28;20040;-70
2023/05/24 02:17:25;;;;;;;13.48;3.92;;;7.20;99.90;;;;;;5094612;28;20076;-71
2023/05/24 02:19:51;;;;;;;18.45;4.63;;;7.20;99.90;;;;;;5094343;28;20383;-72
2023/05/24 02:22:16;;;;;;;12.70;3.83;;;7.20;99.90;;;;;;5094141;28;20126;-71
2023/05/24 02:24:42;;;;;;;18.30;4.93;;;7.20;99.90;;;;;;5094493;28;20040;-70
2023/05/24 02:27:08;;;;;;;11.70;3.80;;;7.30;99.90;;;;;;5094796;28;20475;-70
2023/05/24 02:29:34;;;;;;;8.30;3.65;;;7.60;99.90;;;;;;5094525;28;20379;-70
2023/05/24 02:32:00;;;;;;;11.40;3.10;;;7.20;99.90;;;;;;5094123;28;20044;-71
2023/05/24 02:34:25;;;;;;;18.30;3.72;;;7.30;99.90;;;;;;5092887;28;20032;-69
2023/05/24 02:36:53;;;;;;;12.55;3.58;;;7.20;99.90;;;;;;5093925;28;20036;-70
2023/05/24 02:39:19;;;;;;;9.52;3.13;;;7.10;99.90;;;;;;5093911;28;20036;-70
2023/05/24 02:41:44;;;;;;;19.25;4.63;;;7.20;99.90;;;;;;5093896;28;20028;-71
2023/05/24 02:44:10;;;;;;;14.05;4.38;;;7.60;99.90;;;;;;5093623;28;20043;-71
2023/05/24 02:46:36;;;;;;;12.65;3.47;;;7.20;99.90;;;;;;5093961;28;20042;-71
2023/05/24 02:49:01;;;;;;;10.65;3.35;;;7.20;99.90;;;;;;5094205;28;20092;-71
2023/05/24 02:51:27;;;;;;;8.88;3.85;;;7.20;99.90;;;;;;5093936;28;20040;-71
2023/05/24 02:53:53;;;;;;;11.93;4.72;;;7.20;99.90;;;;;;5093792;28;20082;-69
2023/05/24 02:56:18;;;;;;;19.23;3.85;;;7.20;99.90;;;;;;5093834;28;20040;-71
2023/05/24 02:58:44;;;;;;;14.30;3.97;;;7.50;99.90;;;;;;5093780;28;20070;-70
2023/05/24 03:01:11;;;;;;;11.67;3.73;;;7.10;99.90;;;;;;5094110;28;20075;-71
2023/05/24 03:03:38;;;;;;;16.15;3.63;;;7.10;99.90;;;;;;5093610;28;20109;-70
2023/05/24 03:06:05;;;;;;;22.58;4.43;;;7.10;99.90;;;;;;5093681;28;20044;-71
2023/05/24 03:08:32;;;;;;;17.58;4.15;;;7.10;99.90;;;;;;5093637;28;20109;-69
2023/05/24 03:10:57;;;;;;;10.73;3.73;;;7.10;99.90;;;;;;5093625;28;20471;-69
2023/05/24 03:13:23;;;;;;;24.08;4.00;;;7.10;99.90;;;;;;5093948;28;20039;-70
2023/05/24 03:15:48;;;;;;;16.73;4.30;;;7.10;99.90;;;;;;5093617;28;20352;-70
2023/05/24 03:18:14;;;;;;;14.25;3.95;;;7.20;99.90;;;;;;5093731;28;20458;-70
2023/05/24 03:20:40;;;;;;;12.98;4.13;;;7.10;99.90;;;;;;5093995;28;20086;-70
2023/05/24 03:23:06;;;;;;;11.25;3.75;;;7.70;99.90;;;;;;5093391;28;20077;-71
2023/05/24 03:25:31;;;;;;;13.60;4.43;;;7.10;99.90;;;;;;5093482;28;20070;-71
2023/05/24 03:27:57;;;;;;;16.52;4.43;;;7.20;99.90;;;;;;5093499;28;20040;-70
2023/05/24 03:30:23;;;;;;;13.77;4.38;;;7.60;99.90;;;;;;5093450;28;20039;-69
2023/05/24 03:32:48;;;;;;;16.27;4.18;;;7.20;99.90;;;;;;5093372;28;20032;-70
2023/05/24 03:35:14;;;;;;;13.10;4.13;;;7.20;99.90;;;;;;5093476;28;20582;-70
2023/05/24 03:37:40;;;;;;;10.35;3.47;;;7.20;99.90;;;;;;5093388;28;20055;-70
2023/05/24 03:40:06;;;;;;;15.88;3.80;;;7.20;99.90;;;;;;5093839;28;20043;-71
2023/05/24 03:42:32;;;;;;;10.00;3.13;;;7.20;99.90;;;;;;5092979;28;20500;-70
2023/05/24 03:44:57;;;;;;;13.20;3.50;;;7.30;99.90;;;;;;5093315;28;20270;-69
2023/05/24 03:47:23;;;;;;;21.33;4.53;;;7.30;99.90;;;;;;5093354;28;20032;-70
2023/05/24 03:49:49;;;;;;;16.10;3.95;;;8.00;99.90;;;;;;5093290;28;20044;-70
2023/05/24 03:52:14;;;;;;;13.48;4.32;;;7.40;99.90;;;;;;5093215;28;20127;-70
2023/05/24 03:54:40;;;;;;;17.67;3.75;;;7.40;99.90;;;;;;5092233;28;20036;-70
2023/05/24 03:57:06;;;;;;;13.85;4.45;;;7.40;99.90;;;;;;5093263;28;20046;-70
2023/05/24 03:59:31;;;;;;;16.50;3.72;;;7.50;99.90;;;;;;5093507;28;20066;-70
2023/05/24 04:01:57;;;;;;;13.82;3.33;;;7.50;99.90;;;;;;5093070;28;20036;-70
2023/05/24 04:04:22;;;;;;;17.33;3.83;;;7.50;99.90;;;;;;5093170;28;20062;-70
2023/05/24 04:06:48;;;;;;;16.13;3.75;;;7.60;99.90;;;;;;5092988;28;20040;-71
2023/05/24 04:09:14;;;;;;;17.52;3.83;;;7.60;99.90;;;;;;5092789;28;20582;-70
2023/05/24 04:11:40;;;;;;;23.02;4.07;;;8.10;99.90;;;;;;5093112;28;20398;-70
2023/05/24 04:14:06;;;;;;;20.10;4.38;;;7.80;99.90;;;;;;5093436;28;20044;-70
2023/05/24 04:16:32;;;;;;;16.73;4.82;;;7.90;99.90;;;;;;5096978;28;20081;-71
2023/05/24 04:19:02;;;;;;;12.73;4.47;;;8.00;99.90;;;;;;5096654;28;20119;-70
2023/05/24 04:21:29;;;;;;;13.93;4.35;;;8.00;99.90;;;;;;5096201;28;20097;-70
2023/05/24 04:23:59;;;;;;;14.90;4.50;;;8.10;99.90;;;;;;5095691;28;20048;-70
2023/05/24 04:26:24;;;;;;;9.40;3.35;;;8.20;99.90;;;;;;5096866;28;20044;-71
2023/05/24 04:28:50;;;;;;;15.90;4.15;;;8.30;99.90;;;;;;5096737;28;20463;-70
2023/05/24 04:31:16;;;;;;;18.85;4.30;;;8.40;99.90;;;;;;5096672;28;20047;-71
2023/05/24 04:33:41;;;;;;;13.88;3.88;;;8.40;99.90;;;;;;5096351;28;20043;-71
2023/05/24 04:36:10;;;;;;;11.13;4.25;;;8.50;99.90;;;;;;5096289;28;20082;-71
2023/05/24 04:38:37;;;;;;;15.60;3.33;;;8.60;99.90;;;;;;5096290;28;20365;-71
2023/05/24 04:41:04;;;;;;;13.82;3.47;;;9.20;99.90;;;;;;5096610;28;20078;-71
2023/05/24 04:43:30;;;;;;;12.90;3.63;;;8.80;99.90;;;;;;5096386;28;20040;-71
2023/05/24 04:45:56;;;;;;;13.13;3.50;;;8.90;99.90;;;;;;5096403;28;20052;-71
2023/05/24 04:48:23;;;;;;;12.25;3.22;;;9.00;99.90;;;;;;5096064;28;20332;-71
2023/05/24 04:50:56;;;;;;;;;;;9.10;99.90;;;;;;5096431;28;20046;-70
2023/05/24 04:53:22;;;;;;;22.15;4.03;;;9.10;99.90;;;;;;5096039;28;20018;-71
2023/05/24 04:55:48;;;;;;;13.13;3.40;;;9.20;99.90;;;;;;5096008;28;20115;-70
2023/05/24 04:58:15;;;;;;;16.65;4.30;;;9.40;99.90;;;;;;5095921;28;20039;-70
2023/05/24 05:00:41;;;;;;;14.65;3.38;;;9.30;99.90;;;;;;5095903;28;20051;-70
2023/05/24 05:03:07;;;;;;;13.27;3.53;;;9.30;99.90;;;;;;5094678;28;20036;-70
2023/05/24 05:05:33;;;;;;;10.57;3.15;;;9.30;99.90;;;;;;5095693;28;20066;-71
2023/05/24 05:07:59;;;;;;;7.88;3.25;;;9.40;99.90;;;;;;5096140;28;20460;-71
2023/05/24 05:10:25;;;;;;;11.03;2.83;;;9.40;99.90;;;;;;5095676;28;20048;-70
2023/05/24 05:12:50;;;;;;;10.23;3.03;;;9.40;99.90;;;;;;5095673;28;20036;-70
2023/05/24 05:15:16;;;;;;;8.02;3.13;;;9.50;99.90;;;;;;5095620;28;20070;-71
2023/05/24 05:17:42;;;;;;;12.35;3.22;;;9.60;99.90;;;;;;5095618;28;20040;-70
2023/05/24 05:20:07;;;;;;;15.15;3.13;;;9.70;99.90;;;;;;5095502;28;20040;-70
2023/05/24 05:22:33;;;;;;;6.28;2.92;;;9.80;99.90;;;;;;5096252;28;20080;-72
2023/05/24 05:24:59;;;;;;;11.35;3.55;;;9.90;99.90;;;;;;5095644;28;20038;-70
2023/05/24 05:27:26;;;;;;;8.70;3.00;;;10.00;99.90;;;;;;5095363;28;20044;-71
2023/05/24 05:29:51;;;;;;;13.63;3.77;;;10.10;99.90;;;;;;5094375;28;20110;-71
2023/05/24 05:32:17;;;;;;;19.50;3.83;;;10.10;99.90;;;;;;5095182;28;20044;-70
2023/05/24 05:34:43;;;;;;;12.63;3.10;;;10.40;99.90;;;;;;5093964;28;20118;-70
2023/05/24 05:37:09;;;;;;;22.50;3.47;;;10.60;99.90;;;;;;5094858;28;20490;-71
2023/05/24 05:39:35;;;;;;;8.63;3.67;;;10.80;99.90;;;;;;5095074;28;20046;-69
2023/05/24 05:42:01;;;;;;;10.40;3.28;;;10.90;99.90;;;;;;5095405;28;20036;-70
2023/05/24 05:44:26;;;;;;;12.27;3.10;;;11.10;99.90;;;;;;5095008;28;20553;-70
2023/05/24 05:46:52;;;;;;;10.68;2.90;;;11.30;99.90;;;;;;5094931;28;20036;-71
2023/05/24 05:49:18;;;;;;;11.32;3.10;;;11.30;99.90;;;;;;5094875;28;20036;-70
2023/05/24 05:51:45;;;;;;;8.93;2.92;;;11.80;99.90;;;;;;5095196;28;20036;-71
2023/05/24 05:54:17;;;;;;;14.60;3.40;;;11.40;99.90;;;;;;5094874;28;20055;-70
2023/05/24 05:56:46;;;;;;;11.38;2.90;;;11.40;99.90;;;;;;5095165;28;20119;-71
2023/05/24 05:59:15;;;;;;;10.43;2.63;;;11.60;99.90;;;;;;5093454;28;20036;-71
2023/05/24 06:01:42;;;;;;;13.65;2.80;;;11.80;99.90;;;;;;5094590;28;20437;-70
2023/05/24 06:04:07;;;;;;;;;;;12.00;99.90;;;;;;5094972;28;20044;-70
2023/05/24 06:06:33;;;;;;;10.45;2.90;;;12.10;99.90;;;;;;5094010;28;19920;-71
2023/05/24 06:08:59;;;;;;;12.98;2.83;;;12.00;99.90;;;;;;5094383;28;20044;-70
2023/05/24 06:11:25;;;;;;;18.55;5.32;;;11.90;99.90;;;;;;5094460;28;20384;-72
2023/05/24 06:13:52;;;;;;;14.32;2.40;;;12.00;99.90;;;;;;5094170;28;20495;-71
2023/05/24 06:16:17;;;;;;;10.73;2.73;;;12.10;99.90;;;;;;5094078;28;20533;-71
2023/05/24 06:18:43;;;;;;;9.80;2.58;;;12.00;99.90;;;;;;5093134;28;20050;-71
2023/05/24 06:21:09;;;;;;;9.82;2.75;;;12.00;99.90;;;;;;5094294;28;20042;-71
2023/05/24 06:23:36;;;;;;;15.60;2.30;;;12.20;99.90;;;;;;5094151;28;20529;-70
2023/05/24 06:26:02;;;;;;;12.52;2.67;;;12.30;99.90;;;;;;5094212;28;20380;-70
2023/05/24 06:28:28;;;;;;;10.57;2.00;;;12.50;99.90;;;;;;5094447;28;20043;-70
2023/05/24 06:30:53;;;;;;;7.55;2.28;;;12.60;99.90;;;;;;5094176;28;20581;-72
2023/05/24 06:33:19;;;;;;;12.82;2.72;;;12.60;99.90;;;;;;5094050;28;20039;-70
2023/05/24 06:35:45;;;;;;;10.52;2.95;;;12.60;99.90;;;;;;5094158;28;20399;-70
2023/05/24 06:38:11;;;;;;;10.20;2.47;;;12.60;99.90;;;;;;5093826;28;20375;-70
2023/05/24 06:40:36;;;;;;;9.25;2.63;;;12.70;99.90;;;;;;5093752;28;20422;-70
2023/05/24 06:43:03;;;;;;;14.38;3.25;;;12.80;99.90;;;;;;5094170;28;20118;-70
2023/05/24 06:45:28;;;;;;;9.88;2.40;;;13.00;99.90;;;;;;5093904;28;20075;-70
2023/05/24 06:47:54;;;;;;;6.15;2.15;;;13.00;99.90;;;;;;5093682;28;20078;-71
2023/05/24 06:50:20;;;;;;;6.80;2.00;;;13.20;99.90;;;;;;5094466;28;20036;-71
2023/05/24 06:52:45;;;;;;;10.15;2.88;;;13.10;99.90;;;;;;5093847;28;20044;-70
2023/05/24 06:55:11;;;;;;;11.40;2.83;;;13.20;99.90;;;;;;5093893;28;20421;-70
2023/05/24 06:57:36;;;;;;;8.50;2.60;;;13.20;99.90;;;;;;5094030;28;20047;-70
2023/05/24 07:00:07;;;;;;;12.60;2.15;;;13.20;99.90;;;;;;5093808;28;20050;-70
2023/05/24 07:02:33;;;;;;;7.40;2.15;;;13.10;99.90;;;;;;5093706;28;20040;-71
2023/05/24 07:04:58;;;;;;;10.20;2.77;;;13.20;99.90;;;;;;5093716;28;20422;-71
2023/05/24 07:07:24;;;;;;;15.07;2.83;;;13.20;99.90;;;;;;5093692;28;20047;-71
2023/05/24 07:09:49;;;;;;;11.32;2.47;;;13.20;99.90;;;;;;5093680;28;20450;-71
2023/05/24 07:12:15;;;;;;;10.05;2.70;;;13.40;99.90;;;;;;5093647;28;20360;-72
2023/05/24 07:14:41;;;;;;;12.57;3.23;;;13.60;99.90;;;;;;5093706;28;20048;-71
2023/05/24 07:17:07;;;;;;;12.23;2.47;;;14.20;99.90;;;;;;5093901;28;20036;-71
2023/05/24 07:19:34;;;;;;;4.68;2.38;;;13.70;99.90;;;;;;5093615;28;20384;-70
2023/05/24 07:22:00;;;;;;;9.98;2.22;;;13.70;99.90;;;;;;5093533;28;20404;-70
2023/05/24 07:24:26;;;;;;;8.97;2.37;;;13.70;99.90;;;;;;5093440;28;20044;-71
2023/05/24 07:26:56;;;;;;;10.00;2.70;;;13.70;99.90;;;;;;5093751;28;20040;-71
2023/05/24 07:29:22;;;;;;;9.00;2.28;;;13.70;99.90;;;;;;5093589;28;20044;-72
2023/05/24 07:31:47;;;;;;;7.90;2.63;;;13.60;99.90;;;;;;5093480;28;20052;-71
2023/05/24 07:34:14;;;;;;;10.43;2.47;;;13.40;99.90;;;;;;5093212;28;20494;-71
2023/05/24 07:36:41;;;;;;;7.57;2.60;;;13.40;99.90;;;;;;5093478;28;20123;-71
2023/05/24 07:39:08;;;;;;;11.60;3.13;;;13.40;99.90;;;;;;5093547;28;20048;-70
2023/05/24 07:41:35;;;;;;;12.25;2.83;;;13.50;99.90;;;;;;5092679;28;20426;-70
2023/05/24 07:44:01;;;;;;;8.32;2.67;;;13.40;99.90;;;;;;5093397;28;20047;-72
2023/05/24 07:46:26;;;;;;;8.63;2.63;;;13.40;99.90;;;;;;5093387;28;20035;-70
2023/05/24 07:48:52;;;;;;;10.17;2.10;;;13.40;99.90;;;;;;5093880;28;20113;-71
2023/05/24 07:51:18;;;;;;;8.15;2.58;;;13.40;99.90;;;;;;5097648;28;20044;-71
2023/05/24 07:53:43;;;;;;;14.38;2.50;;;13.20;99.90;;;;;;5097235;28;20080;-70
2023/05/24 07:56:09;;;;;;;7.72;2.17;;;13.20;99.90;;;;;;5097614;28;20042;-71
2023/05/24 07:58:35;;;;;;;11.18;2.30;;;13.10;99.90;;;;;;5097182;28;20122;-71
2023/05/24 08:01:00;;;;;;;9.50;2.87;;;13.00;99.90;;;;;;5097002;28;20047;-71
2023/05/24 08:03:27;;;;;;;10.88;1.88;;;13.10;99.90;;;;;;5097388;28;20035;-70
2023/05/24 08:05:52;;;;;;;8.38;2.17;;;13.20;99.90;;;;;;5096960;28;20083;-70
2023/05/24 08:08:19;;;;;;;8.00;2.20;;;13.20;99.90;;;;;;5097189;28;20128;-71
2023/05/24 08:10:44;;;;;;;8.75;2.00;;;13.20;99.90;;;;;;5096997;28;20395;-71
2023/05/24 08:13:10;;;;;;;5.43;2.20;;;13.10;99.90;;;;;;5096905;28;20048;-71
2023/05/24 08:15:36;;;;;;;7.63;2.38;;;13.30;99.90;;;;;;5096817;28;20040;-71
2023/05/24 08:18:02;;;;;;;9.85;2.10;;;13.60;99.90;;;;;;5096494;28;20563;-71
2023/05/24 08:20:27;;;;;;;9.68;2.05;;;13.90;99.90;;;;;;5096646;28;20047;-70
2023/05/24 08:22:53;;;;;;;7.25;2.00;;;14.00;99.90;;;;;;5096576;28;20032;-70
2023/05/24 08:25:19;;;;;;;4.30;1.92;;;14.10;99.90;;;;;;5096607;28;20054;-71
2023/05/24 08:27:45;;;;;;;5.70;2.30;;;14.20;99.90;;;;;;5096767;28;20066;-71
2023/05/24 08:30:13;;;;;;;5.65;1.75;;;14.30;99.90;;;;;;5096514;28;20036;-70
2023/05/24 08:32:38;;;;;;;8.45;2.25;;;14.70;99.90;;;;;;5095145;28;20082;-70
2023/05/24 08:35:04;;;;;;;6.90;2.03;;;14.90;99.90;;;;;;5096841;28;20139;-72
2023/05/24 08:37:32;;;;;;;8.87;2.63;;;15.00;99.90;;;;;;5096330;28;20075;-71
2023/05/24 08:39:58;;;;;;;8.25;2.30;;;15.00;99.90;;;;;;5096197;28;20118;-70
2023/05/24 08:42:24;;;;;;;8.63;1.93;;;14.80;99.90;;;;;;5096160;28;20515;-70
2023/05/24 08:45:00;;;;;;;8.52;2.05;;;14.60;99.90;;;;;;5096142;28;20048;-70
2023/05/24 08:47:27;;;;;;;7.45;2.15;;;14.40;99.90;;;;;;5096627;28;20060;-72
2023/05/24 08:49:54;;;;;;;7.35;2.00;;;14.20;99.90;;;;;;5096141;28;20075;-71
2023/05/24 08:52:21;;;;;;;7.13;2.03;;;14.10;99.90;;;;;;5096106;28;20089;-70
2023/05/24 08:54:47;;;;;;;;;;;14.10;99.90;;;;;;5096607;28;20468;-71
2023/05/24 08:57:15;;;;;;;6.95;1.88;;;14.10;99.90;;;;;;5095976;28;19923;-71
2023/05/24 08:59:41;;;;;;;8.55;2.28;;;14.10;99.90;;;;;;5095556;28;20448;-71
2023/05/24 09:02:12;;;;;;;4.50;2.37;;;14.10;99.90;;;;;;5096079;28;20406;-70
2023/05/24 09:04:40;;;;;;;8.45;2.25;;;14.00;99.90;;;;;;5095749;28;20040;-72
2023/05/24 09:07:07;;;;;;;5.13;2.25;;;13.90;99.90;;;;;;5095488;28;20086;-70
2023/05/24 09:09:33;;;;;;;10.77;2.25;;;14.00;99.90;;;;;;5095764;28;20434;-70
2023/05/24 09:12:04;;;;;;;9.60;1.92;;;14.10;99.90;;;;;;5095617;28;20059;-72
2023/05/24 09:14:30;;;;;;;8.60;2.00;;;14.10;99.90;;;;;;5095672;28;20090;-70
2023/05/24 09:16:56;;;;;;;7.80;2.30;;;14.10;99.90;;;;;;5095626;28;20040;-71
2023/05/24 09:19:22;;;;;;;6.90;2.15;;;14.20;99.90;;;;;;5095454;28;20036;-71
2023/05/24 09:21:48;;;;;;;6.13;2.03;;;14.30;99.90;;;;;;5095430;28;20047;-70
2023/05/24 09:24:14;;;;;;;6.43;1.80;;;14.40;99.90;;;;;;5095455;28;20039;-71
2023/05/24 09:26:40;;;;;;;4.90;2.10;;;14.40;99.90;;;;;;5095352;28;20273;-71
2023/05/24 09:29:07;;;;;;;5.22;2.10;;;14.60;99.90;;;;;;5095481;28;20080;-71
2023/05/24 09:31:34;;;;;;;3.95;1.95;;;14.80;99.90;;;;;;5095603;28;20040;-70
2023/05/24 09:34:00;;;;;;;8.13;2.17;;;14.90;99.90;;;;;;5094304;28;20082;-70
2023/05/24 09:36:31;;;;;;;4.97;1.87;;;15.00;99.90;;;;;;5095263;28;20134;-71
2023/05/24 09:39:10;;;;;;;8.85;2.05;;;15.10;99.90;;;;;;5095157;28;20096;-71
2023/05/24 09:41:36;;;;;;;7.00;2.22;;;15.10;99.90;;;;;;5094985;28;20044;-71
2023/05/24 09:44:02;;;;;;;10.13;2.60;;;15.10;99.90;;;;;;5095448;28;20032;-70
2023/05/24 09:46:34;;;;;;;11.25;2.55;;;15.10;99.90;;;;;;5095287;28;20044;-71
2023/05/24 09:49:02;;;;;;;3.78;1.80;;;15.20;99.90;;;;;;5094875;28;20043;-71
2023/05/24 09:51:28;;;;;;;7.78;2.22;;;15.10;99.90;;;;;;5093690;28;20112;-71
2023/05/24 09:54:00;;;;;;;7.82;2.15;;;14.90;99.90;;;;;;5094852;28;20418;-72
2023/05/24 09:56:26;;;;;;;8.45;1.75;;;14.80;99.90;;;;;;5094792;28;20040;-71
2023/05/24 09:58:53;;;;;;;7.43;2.33;;;14.90;99.90;;;;;;5095156;28;20116;-71
2023/05/24 10:01:23;;;;;;;5.82;2.00;;;14.60;99.90;;;;;;5094720;28;20040;-72
2023/05/24 10:03:56;;;;;;;7.93;2.15;;;14.60;99.90;;;;;;5094515;28;20032;-71
2023/05/24 10:06:22;;;;;;;5.95;1.90;;;14.60;99.90;;;;;;5094452;28;20052;-70
2023/05/24 10:08:49;;;;;;;7.70;1.73;;;14.60;99.90;;;;;;5094519;28;20040;-71
2023/05/24 10:11:15;;;;;;;;;;;14.60;99.90;;;;;;5094785;28;20070;-70
2023/05/24 10:13:41;;;;;;;3.25;1.70;;;14.60;99.90;;;;;;5093933;28;19917;-71
2023/05/24 10:16:07;;;;;;;7.73;1.90;;;14.80;99.90;;;;;;5094414;28;20044;-70
2023/05/24 10:18:33;;;;;;;5.90;1.83;;;14.90;99.90;;;;;;5094144;28;20472;-71
2023/05/24 10:21:00;;;;;;;5.22;1.52;;;15.00;99.90;;;;;;5094463;28;20040;-72
2023/05/24 10:23:29;;;;;;;9.30;2.28;;;15.10;99.90;;;;;;5093927;28;20468;-72
2023/05/24 10:26:10;;;;;;;7.68;1.73;;;15.30;99.90;;;;;;5094154;28;20122;-71
2023/05/24 10:28:41;;;;;;;9.07;1.92;;;15.30;99.90;;;;;;5094174;28;20047;-71
2023/05/24 10:31:11;;;;;;;9.23;2.20;;;15.30;99.90;;;;;;5094471;28;20372;-70
2023/05/24 10:33:37;;;;;;;6.72;1.95;;;15.40;99.90;;;;;;5094088;28;20047;-71
2023/05/24 10:36:06;;;;;;;5.03;1.95;;;15.40;99.90;;;;;;5094074;28;20047;-71
2023/05/24 10:38:32;;;;;;;6.40;2.67;;;15.50;99.90;;;;;;5094374;28;20086;-72
2023/05/24 10:40:58;;;;;;;6.53;1.90;;;15.60;99.90;;;;;;5094402;28;20071;-71
2023/05/24 10:43:25;;;;;;;5.40;2.13;;;15.60;99.90;;;;;;5093974;28;20080;-71
2023/05/24 10:45:51;;;;;;;5.95;1.70;;;15.60;99.90;;;;;;5094117;28;20322;-72
2023/05/24 10:48:23;;;;;;;5.82;1.65;;;15.70;99.90;;;;;;5093908;28;20051;-72
2023/05/24 10:50:49;;;;;;;6.70;2.25;;;15.70;99.90;;;;;;5093897;28;20052;-72
2023/05/24 10:53:21;;;;;;;6.97;2.33;;;15.70;99.90;;;;;;5093883;28;20161;-71
2023/05/24 10:56:05;;;;;;;7.43;2.00;;;15.60;99.90;;;;;;5094173;28;20434;-71
2023/05/24 10:59:01;;;;;;;7.10;1.80;;;15.70;99.90;;;;;;5093536;28;20066;-70
2023/05/24 11:01:28;;;;;;;6.07;1.80;;;15.80;99.90;;;;;;5094261;28;20055;-70
2023/05/24 11:04:06;;;;;;;6.50;1.83;;;15.70;99.90;;;;;;5093708;28;20040;-70
2023/05/24 11:06:49;;;;;;;8.95;1.90;;;15.70;99.90;;;;;;5093701;28;20075;-70
2023/05/24 11:09:19;;;;;;;7.63;1.92;;;15.70;99.90;;;;;;5093321;28;20472;-70
2023/05/24 11:11:46;;;;;;;7.35;1.73;;;15.70;99.90;;;;;;5093669;28;20109;-71
2023/05/24 11:14:13;;;;;;;4.95;1.67;;;15.80;99.90;;;;;;5093635;28;20090;-71
2023/05/24 11:16:39;;;;;;;4.93;1.77;;;15.90;99.90;;;;;;5092779;28;20051;-69
2023/05/24 11:19:17;;;;;;;5.85;1.75;;;16.10;99.90;;;;;;5093591;28;20036;-70
2023/05/24 11:21:48;;;;;;;4.70;1.90;;;16.20;99.90;;;;;;5093820;28;20127;-71
2023/05/24 11:24:19;;;;;;;6.50;1.98;;;16.10;99.90;;;;;;5095996;28;20036;-71
2023/05/24 11:26:45;;;;;;;6.05;2.22;;;15.80;99.90;;;;;;5097737;28;20043;-71
2023/05/24 11:29:20;;;;;;;8.50;2.17;;;15.80;99.90;;;;;;5097682;28;20044;-71
2023/05/24 11:31:51;;;;;;;6.53;2.30;;;15.70;99.90;;;;;;5097648;28;20059;-70
2023/05/24 11:34:18;;;;;;;6.38;1.58;;;15.90;99.90;;;;;;5096504;28;20119;-70
2023/05/24 11:36:45;;;;;;;6.22;2.15;;;15.60;99.90;;;;;;5097496;28;20047;-70
2023/05/24 11:39:12;;;;;;;;;;;15.60;99.90;;;;;;5098073;28;20040;-71
2023/05/24 11:41:39;;;;;;;8.73;2.28;;;15.50;99.90;;;;;;5097386;28;20061;-71
2023/05/24 11:44:09;;;;;;;4.90;1.98;;;15.40;99.90;;;;;;5097331;28;20410;-71
2023/05/24 11:46:35;;;;;;;7.78;2.75;;;15.40;99.90;;;;;;5097297;28;20388;-72
2023/05/24 11:49:02;;;;;;;5.57;2.00;;;15.20;99.90;;;;;;5097282;28;20119;-70
2023/05/24 11:51:31;;;;;;;;;;;15.30;99.90;;;;;;5097632;28;20130;-71
2023/05/24 11:53:57;;;;;;;5.10;1.95;;;15.30;99.90;;;;;;5097202;28;19923;-71
2023/05/24 11:56:26;;;;;;;7.00;2.03;;;15.30;99.90;;;;;;5097127;28;20119;-71
2023/05/24 11:59:01;;;;;;;4.75;1.60;;;15.30;99.90;;;;;;5097259;28;20079;-70
2023/05/24 12:01:27;;;;;;;5.82;1.95;;;15.40;99.90;;;;;;5096916;28;20054;-71
2023/05/24 12:03:53;;;;;;;4.93;1.80;;;15.50;99.90;;;;;;5096786;28;20040;-70
2023/05/24 12:06:20;;;;;;;7.88;2.45;;;15.60;99.90;;;;;;5096724;28;20056;-70
2023/05/24 12:08:47;;;;;;;6.93;1.77;;;15.70;99.90;;;;;;5096894;28;20040;-71
2023/05/24 12:11:14;;;;;;;4.60;1.95;;;15.70;99.90;;;;;;5096853;28;20036;-71
2023/05/24 12:13:40;;;;;;;7.05;2.08;;;16.00;99.90;;;;;;5097232;28;20368;-70
2023/05/24 12:16:06;;;;;;;6.27;2.00;;;16.20;99.90;;;;;;5096793;28;20036;-71
2023/05/24 12:18:32;;;;;;;5.03;1.70;;;16.40;99.90;;;;;;5096827;28;20467;-71
2023/05/24 12:20:58;;;;;;;5.27;1.70;;;16.50;99.90;;;;;;5096719;28;20089;-71
2023/05/24 12:23:30;;;;;;;9.97;2.40;;;16.40;99.90;;;;;;5096590;28;20043;-71
2023/05/24 12:25:59;;;;;;;5.68;2.20;;;16.40;99.90;;;;;;5096611;28;20476;-71
2023/05/24 12:28:26;;;;;;;4.18;1.80;;;16.50;99.90;;;;;;5096646;28;20379;-71
2023/05/24 12:30:52;;;;;;;5.80;2.00;;;16.60;99.90;;;;;;5096493;28;20086;-71
2023/05/24 12:33:18;;;;;;;7.37;2.40;;;16.80;99.90;;;;;;5096894;28;20067;-71
2023/05/24 12:35:45;;;;;;;7.88;1.80;;;17.00;99.90;;;;;;5095428;28;20048;-70
2023/05/24 12:38:11;;;;;;;4.85;1.50;;;17.00;99.90;;;;;;5096724;28;20115;-70
2023/05/24 12:40:36;;;;;;;5.97;1.80;;;17.20;99.90;;;;;;5096328;28;20109;-71
2023/05/24 12:43:03;;;;;;;5.27;1.77;;;17.30;99.90;;;;;;5094754;28;20044;-70
2023/05/24 12:45:30;;;;;;;7.50;1.88;;;17.40;99.90;;;;;;5095167;28;20036;-71
2023/05/24 12:47:59;;;;;;;4.63;2.10;;;17.70;99.90;;;;;;5096114;28;20051;-72
2023/05/24 12:50:26;;;;;;;5.88;1.70;;;18.00;99.90;;;;;;5096042;28;20040;-71